Time;durP1;ratioP1;P1;durP2;ratioP2;P2;SDS_P1;SDS_P2;PMS_P1;PMS_P2;Temp;Humidity;BMP_temperature;BMP_pressure;BME280_temperature;BME280_humidity;BME280_pressure;Samples;Min_cycle;Max_cycle;Signal;HPM_P1;HPM_P2
2023/01/07 00:02:36;;;;;;;;;;;;;;;17.39;68.64;101189.66;2250800;79;51567;-75
2023/01/07 00:05:38;;;;;;;;;;;;;;;17.39;68.59;101184.78;2250793;79;52155;-75
2023/01/07 00:08:40;;;;;;;;;;;;;;;17.33;69.05;101186.27;2261375;78;51380;-75
2023/01/07 00:11:41;;;;;;;;;;;;;;;17.31;68.85;101173.55;2261459;78;51013;-75
2023/01/07 00:14:43;;;;;;;;;;;;;;;17.32;69.22;101177.92;2247771;78;51550;-77
2023/01/07 00:17:45;;;;;;;;;;;;;;;17.33;69.09;101177.42;2255741;78;51419;-76
2023/01/07 00:20:46;;;;;;;;;;;;;;;17.32;69.54;101169.90;2232199;78;51427;-76
2023/01/07 00:23:48;;;;;;;;;;;;;;;17.39;69.44;101163.38;2230695;78;51295;-76
2023/01/07 00:26:49;;;;;;;;;;;;;;;17.40;69.48;101168.58;2232076;79;50287;-76
2023/01/07 00:29:51;;;;;;;;;;;;;;;17.41;69.42;101164.06;2232169;78;50364;-75
2023/01/07 00:33:15;;;;;;;;;;;;;;;17.42;69.26;101173.78;2232245;79;50636;-75
2023/01/07 00:36:02;;;;;;;;;;;;;;;17.38;69.36;101164.39;2247520;78;22840;-75
2023/01/07 00:39:08;;;;;;;;;;;;;;;17.37;69.23;101165.41;2232228;78;51493;-76
2023/01/07 00:45:30;;;;;;;;;;;;;;;17.35;69.16;101169.56;2259098;77;23121;-76
2023/01/07 00:48:32;;;;;;;;;;;;;;;17.36;69.11;101165.87;2256385;78;52613;-76
2023/01/07 00:51:33;;;;;;;;;;;;;;;17.36;69.06;101169.06;2232104;78;51541;-76
2023/01/07 00:54:35;;;;;;;;;;;;;;;17.34;69.02;101171.05;2256641;77;51495;-76
2023/01/07 00:57:36;;;;;;;;;;;;;;;17.35;69.05;101179.44;2232082;79;50283;-77
2023/01/07 01:00:38;;;;;;;;;;;;;;;17.38;68.85;101180.45;2230349;79;49670;-76
2023/01/07 01:03:40;;;;;;;;;;;;;;;17.41;68.55;101178.77;2232254;79;50389;-77
2023/01/07 01:06:41;;;;;;;;;;;;;;;17.41;68.62;101169.41;2232163;79;50641;-76
2023/01/07 01:09:43;;;;;;;;;;;;;;;17.36;69.07;101175.75;2232466;78;51394;-75
2023/01/07 01:12:44;;;;;;;;;;;;;;;17.30;69.44;101172.40;2256859;78;50605;-77
2023/01/07 01:15:46;;;;;;;;;;;;;;;17.32;69.40;101170.41;2264073;78;50656;-77
2023/01/07 01:18:48;;;;;;;;;;;;;;;17.34;69.06;101170.58;2251248;78;50313;-77
2023/01/07 01:21:49;;;;;;;;;;;;;;;17.35;68.79;101170.08;2266251;78;50163;-76
2023/01/07 01:24:51;;;;;;;;;;;;;;;17.34;69.33;101175.06;2266527;78;50100;-76
2023/01/07 01:27:53;;;;;;;;;;;;;;;17.34;69.65;101183.09;2264538;78;50774;-76
2023/01/07 01:30:55;;;;;;;;;;;;;;;17.39;69.68;101187.45;2264528;78;51547;-75
2023/01/07 01:33:58;;;;;;;;;;;;;;;17.40;69.63;101181.12;2264461;78;50738;-76
2023/01/07 01:37:00;;;;;;;;;;;;;;;17.42;69.72;101187.16;2241179;78;50156;-76
2023/01/07 01:40:02;;;;;;;;;;;;;;;17.41;69.58;101183.62;2266226;78;51508;-76
2023/01/07 01:43:04;;;;;;;;;;;;;;;17.39;69.72;101183.45;2264509;78;50299;-76
2023/01/07 01:46:07;;;;;;;;;;;;;;;17.38;69.59;101175.09;2252259;78;50052;-77
2023/01/07 01:49:13;;;;;;;;;;;;;;;17.36;69.62;101169.06;2236476;79;49610;-77
2023/01/07 01:52:16;;;;;;;;;;;;;;;17.37;69.36;101158.72;2250887;79;51717;-77
2023/01/07 01:55:19;;;;;;;;;;;;;;;17.36;69.37;101159.70;2250813;79;50912;-76
2023/01/07 01:58:23;;;;;;;;;;;;;;;17.38;69.14;101155.03;2250726;79;50367;-77
2023/01/07 02:01:24;;;;;;;;;;;;;;;17.38;69.12;101159.05;2261777;78;50936;-77
2023/01/07 02:04:27;;;;;;;;;;;;;;;17.40;69.06;101152.53;2261740;78;50394;-77
2023/01/07 02:07:29;;;;;;;;;;;;;;;17.40;69.03;101161.06;2251081;79;51568;-76
2023/01/07 02:10:31;;;;;;;;;;;;;;;17.34;69.32;101157.68;2261797;78;51574;-77
2023/01/07 02:13:47;;;;;;;;;;;;;;;17.32;69.35;101155.69;2264400;78;49648;-76
2023/01/07 02:17:05;;;;;;;;;;;;;;;17.33;69.35;101154.68;2227378;79;52611;-77
2023/01/07 02:20:15;;;;;;;;;;;;;;;17.30;69.52;101155.01;2250860;78;51543;-77
2023/01/07 02:23:34;;;;;;;;;;;;;;;17.25;69.55;101146.64;2251015;78;50426;-77
2023/01/07 02:26:38;;;;;;;;;;;;;;;17.28;69.43;101147.14;2261339;78;50083;-77
2023/01/07 02:29:44;;;;;;;;;;;;;;;17.30;69.33;101152.34;2250852;78;51504;-77
2023/01/07 02:32:47;;;;;;;;;;;;;;;17.27;69.64;101150.83;2250787;78;51505;-76
2023/01/07 02:35:50;;;;;;;;;;;;;;;17.27;69.84;101148.66;2250909;78;51620;-77
2023/01/07 02:38:57;;;;;;;;;;;;;;;17.28;69.88;101140.95;2236339;79;50209;-76
2023/01/07 02:41:59;;;;;;;;;;;;;;;17.28;69.83;101132.42;2250780;78;50351;-76
2023/01/07 02:45:19;;;;;;;;;;;;;;;17.28;70.01;101118.22;2260633;78;51565;-76
2023/01/07 02:48:20;;;;;;;;;;;;;;;17.26;70.08;101117.03;2267884;78;51562;-77
2023/01/07 02:51:23;;;;;;;;;;;;;;;17.26;70.16;101122.89;2245847;78;51144;-77
2023/01/07 02:54:26;;;;;;;;;;;;;;;17.26;70.15;101126.39;2269264;78;51528;-77
2023/01/07 02:57:29;;;;;;;;;;;;;;;17.29;70.10;101131.92;2269170;78;52679;-77
2023/01/07 03:00:33;;;;;;;;;;;;;;;17.31;69.89;101131.27;2269216;77;51468;-76
2023/01/07 03:03:45;;;;;;;;;;;;;;;17.31;69.73;101129.92;2269287;78;51525;-77
2023/01/07 03:06:51;;;;;;;;;;;;;;;17.30;69.80;101130.94;2269143;78;50321;-77
2023/01/07 03:10:05;;;;;;;;;;;;;;;17.27;69.91;101128.59;2269303;78;50710;-77
2023/01/07 03:13:08;;;;;;;;;;;;;;;17.22;69.98;101121.56;2269317;78;50026;-77
2023/01/07 03:16:15;;;;;;;;;;;;;;;17.22;70.31;101116.21;2240496;78;51017;-77
2023/01/07 03:19:17;;;;;;;;;;;;;;;17.19;70.24;101120.88;2245523;78;49643;-77
2023/01/07 03:22:19;;;;;;;;;;;;;;;17.19;70.31;101119.54;2269436;78;50678;-78
2023/01/07 03:25:21;;;;;;;;;;;;;;;17.19;70.34;101128.07;2261079;78;51531;-77
2023/01/07 03:28:24;;;;;;;;;;;;;;;17.17;70.28;101128.22;2245592;78;51045;-78
2023/01/07 03:31:26;;;;;;;;;;;;;;;17.17;70.25;101123.38;2269432;77;50011;-77
2023/01/07 03:34:27;;;;;;;;;;;;;;;17.19;70.22;101125.39;2269249;78;50733;-77
2023/01/07 03:37:29;;;;;;;;;;;;;;;17.18;70.18;101127.20;2269087;78;50351;-77
2023/01/07 03:40:31;;;;;;;;;;;;;;;17.18;70.27;101133.06;2245671;78;51193;-77
2023/01/07 03:43:32;;;;;;;;;;;;;;;17.17;70.23;101123.38;2269249;78;50366;-77
2023/01/07 03:46:34;;;;;;;;;;;;;;;17.16;70.30;101118.53;2217768;78;49491;-77
2023/01/07 03:49:35;;;;;;;;;;;;;;;17.16;70.21;101121.68;2269093;77;50707;-77
2023/01/07 03:52:37;;;;;;;;;;;;;;;17.17;70.24;101116.69;2269127;78;50391;-77
2023/01/07 03:55:38;;;;;;;;;;;;;;;17.20;70.08;101117.70;2269092;78;49959;-76
2023/01/07 03:58:40;;;;;;;;;;;;;;;17.20;70.02;101118.53;2269019;77;50676;-78
2023/01/07 04:01:42;;;;;;;;;;;;;;;17.22;69.96;101117.55;2268997;78;51527;-77
2023/01/07 04:04:43;;;;;;;;;;;;;;;17.23;69.84;101113.86;2245603;78;51775;-77
2023/01/07 04:07:45;;;;;;;;;;;;;;;17.23;69.69;101097.31;2268902;78;51518;-77
2023/01/07 04:10:46;;;;;;;;;;;;;;;17.22;70.03;101090.80;2270646;78;51484;-77
2023/01/07 04:13:48;;;;;;;;;;;;;;;17.22;70.16;101078.77;2260567;78;50289;-77
2023/01/07 04:16:50;;;;;;;;;;;;;;;17.20;70.25;101073.06;2220589;79;52274;-77
2023/01/07 04:19:51;;;;;;;;;;;;;;;17.20;70.42;101077.08;2232399;79;50071;-77
2023/01/07 04:22:53;;;;;;;;;;;;;;;17.21;70.22;101079.25;2232425;79;50209;-77
2023/01/07 04:25:54;;;;;;;;;;;;;;;17.20;70.35;101078.41;2232336;78;50375;-77
2023/01/07 04:28:56;;;;;;;;;;;;;;;17.24;70.20;101076.75;2209021;79;51661;-78
2023/01/07 04:31:58;;;;;;;;;;;;;;;17.24;70.15;101064.23;2232173;78;51514;-78
2023/01/07 04:34:59;;;;;;;;;;;;;;;17.20;70.09;101067.72;2232612;79;51425;-76
2023/01/07 04:38:01;;;;;;;;;;;;;;;17.19;70.00;101065.23;2233335;79;50343;-76
2023/01/07 04:41:02;;;;;;;;;;;;;;;17.19;70.12;101068.73;2233407;79;50273;-76
2023/01/07 04:44:04;;;;;;;;;;;;;;;17.20;70.12;101077.59;2241364;78;50392;-76
2023/01/07 04:47:06;;;;;;;;;;;;;;;17.17;70.04;101066.72;2266385;78;50415;-77
2023/01/07 04:50:07;;;;;;;;;;;;;;;17.17;70.12;101069.89;2264580;78;50329;-77
2023/01/07 04:53:09;;;;;;;;;;;;;;;17.17;70.06;101070.73;2241076;78;52520;-77
2023/01/07 04:56:11;;;;;;;;;;;;;;;17.16;69.87;101067.73;2264395;78;50374;-76
2023/01/07 04:59:12;;;;;;;;;;;;;;;17.15;70.13;101065.20;2264423;78;50378;-76
2023/01/07 05:02:14;;;;;;;;;;;;;;;17.15;70.02;101063.87;2264519;78;50888;-77
2023/01/07 05:05:15;;;;;;;;;;;;;;;17.15;69.92;101065.20;2241240;78;52509;-77
2023/01/07 05:08:17;;;;;;;;;;;;;;;17.16;69.85;101073.55;2264537;78;51567;-77
2023/01/07 05:11:23;;;;;;;;;;;;;;;17.17;69.90;101068.05;2264667;78;51458;-77
2023/01/07 05:14:22;;;;;;;;;;;;;;;17.17;69.96;101074.73;2264432;77;22275;-77
2023/01/07 05:17:23;;;;;;;;;;;;;;;17.18;69.89;101077.73;2242219;78;51145;-78
2023/01/07 05:20:25;;;;;;;;;;;;;;;17.18;69.57;101065.70;2266548;78;50395;-77
2023/01/07 05:23:26;;;;;;;;;;;;;;;17.24;69.70;101062.03;2258753;77;51537;-77
2023/01/07 05:26:28;;;;;;;;;;;;;;;17.21;69.55;101052.50;2269631;77;51418;-77
2023/01/07 05:29:30;;;;;;;;;;;;;;;17.18;68.26;101059.02;2251438;78;52371;-76
2023/01/07 05:32:31;;;;;;;;;;;;;;;17.18;67.95;101058.19;2267043;78;50663;-76
2023/01/07 05:35:33;;;;;;;;;;;;;;;17.16;67.99;101055.70;2241720;78;50246;-77
2023/01/07 05:38:35;;;;;;;;;;;;;;;17.18;67.73;101056.34;2243868;78;51463;-77
2023/01/07 05:41:36;;;;;;;;;;;;;;;17.17;67.72;101054.68;2244026;78;52394;-77
2023/01/07 05:44:38;;;;;;;;;;;;;;;17.17;67.72;101049.84;2269507;77;50437;-76
2023/01/07 05:47:39;;;;;;;;;;;;;;;17.15;67.73;101050.50;2250551;78;50230;-77
2023/01/07 05:50:41;;;;;;;;;;;;;;;17.15;67.86;101051.33;2251019;79;50600;-77
2023/01/07 05:53:43;;;;;;;;;;;;;;;17.12;68.12;101057.01;2261768;78;51206;-76
2023/01/07 05:56:44;;;;;;;;;;;;;;;17.13;68.06;101048.48;2261472;78;50249;-77
2023/01/07 05:59:46;;;;;;;;;;;;;;;17.11;67.96;101047.33;2250877;79;50665;-77
2023/01/07 06:02:47;;;;;;;;;;;;;;;17.12;67.90;101051.66;2261431;78;50649;-76
2023/01/07 06:05:49;;;;;;;;;;;;;;;17.11;68.37;101055.34;2261555;78;51482;-77
2023/01/07 06:08:50;;;;;;;;;;;;;;;17.12;68.25;101057.52;2250804;79;51424;-76
2023/01/07 06:11:52;;;;;;;;;;;;;;;17.11;68.43;101053.15;2250861;79;51409;-77
2023/01/07 06:14:54;;;;;;;;;;;;;;;17.10;68.33;101048.31;2268339;77;50273;-77
2023/01/07 06:17:55;;;;;;;;;;;;;;;17.14;68.14;101057.69;2237899;78;51148;-76
2023/01/07 06:20:57;;;;;;;;;;;;;;;17.16;69.89;101061.52;2261609;78;51625;-76
2023/01/07 06:23:58;;;;;;;;;;;;;;;17.16;69.99;101059.70;2251123;78;52153;-77
2023/01/07 06:27:00;;;;;;;;;;;;;;;17.18;71.02;101060.36;2261715;78;51422;-78
2023/01/07 06:30:03;;;;;;;;;;;;;;;17.20;70.97;101062.88;2261713;78;50861;-77
2023/01/07 06:33:04;;;;;;;;;;;;;;;17.20;70.91;101066.38;2251182;79;50340;-77
2023/01/07 06:36:06;;;;;;;;;;;;;;;17.18;70.62;101065.70;2251181;79;50787;-75
2023/01/07 06:39:08;;;;;;;;;;;;;;;17.18;70.39;101066.20;2261961;78;51621;-77
2023/01/07 06:42:10;;;;;;;;;;;;;;;17.18;70.06;101065.70;2236948;79;51532;-77
2023/01/07 06:45:12;;;;;;;;;;;;;;;17.18;69.88;101072.39;2257423;77;50379;-77
2023/01/07 06:48:13;;;;;;;;;;;;;;;17.17;69.76;101068.56;2265156;78;51654;-77
2023/01/07 06:51:15;;;;;;;;;;;;;;;17.16;69.49;101066.39;2266272;78;52184;-76
2023/01/07 06:54:16;;;;;;;;;;;;;;;17.16;69.51;101062.85;2266250;78;52518;-79
2023/01/07 06:57:18;;;;;;;;;;;;;;;17.15;69.40;101059.35;2264665;78;50397;-77
2023/01/07 07:00:20;;;;;;;;;;;;;;;17.15;69.05;101050.50;2264812;78;50314;-77
2023/01/07 07:03:21;;;;;;;;;;;;;;;17.14;69.05;101049.67;2266217;78;50743;-79
2023/01/07 07:06:23;;;;;;;;;;;;;;;17.14;68.94;101056.86;2241244;78;50940;-78
2023/01/07 07:09:25;;;;;;;;;;;;;;;17.13;68.88;101065.36;2266497;78;51417;-77
2023/01/07 07:12:26;;;;;;;;;;;;;;;17.12;68.78;101062.36;2266466;78;51409;-77
2023/01/07 07:15:28;;;;;;;;;;;;;;;17.12;68.81;101062.36;2262489;78;51383;-80
2023/01/07 07:18:29;;;;;;;;;;;;;;;17.12;69.24;101065.54;2245899;78;50982;-77
2023/01/07 07:21:31;;;;;;;;;;;;;;;17.11;69.35;101064.70;2271285;77;49898;-78
2023/01/07 07:24:32;;;;;;;;;;;;;;;17.14;69.34;101068.89;2269557;77;50179;-78
2023/01/07 07:27:34;;;;;;;;;;;;;;;17.13;69.31;101067.20;2269278;78;50600;-77
2023/01/07 07:30:36;;;;;;;;;;;;;;;17.14;69.30;101063.04;2270950;78;50242;-79
2023/01/07 07:33:38;;;;;;;;;;;;;;;17.13;69.26;101068.53;2235671;78;51989;-77
2023/01/07 07:36:39;;;;;;;;;;;;;;;17.13;69.26;101068.03;2232441;79;50399;-78
2023/01/07 07:39:41;;;;;;;;;;;;;;;17.13;69.17;101065.86;2232639;79;50123;-78
2023/01/07 07:42:42;;;;;;;;;;;;;;;17.13;68.88;101070.70;2209864;79;51192;-77
2023/01/07 07:45:44;;;;;;;;;;;;;;;17.11;68.83;101065.18;2255497;78;50642;-78
2023/01/07 07:48:47;;;;;;;;;;;;;;;17.11;68.76;101075.41;2232361;79;51512;-77
2023/01/07 07:51:49;;;;;;;;;;;;;;;17.10;68.80;101080.39;2232659;79;52375;-77
2023/01/07 07:54:50;;;;;;;;;;;;;;;17.11;69.05;101082.56;2209998;79;52345;-79
2023/01/07 07:57:55;;;;;;;;;;;;;;;17.10;69.05;101080.39;2232640;79;51422;-78
2023/01/07 08:00:57;;;;;;;;;;;;;;;17.09;68.93;101072.55;2233034;79;51574;-78
2023/01/07 08:03:58;;;;;;;;;;;;;;;17.09;68.83;101077.39;2233040;79;50626;-78
2023/01/07 08:07:00;;;;;;;;;;;;;;;17.10;69.08;101077.72;2232452;78;51450;-78
2023/01/07 08:10:02;;;;;;;;;;;;;;;17.11;69.11;101078.55;2209823;79;50981;-76
2023/01/07 08:13:04;;;;;;;;;;;;;;;17.13;69.16;101077.89;2234072;78;51465;-75
2023/01/07 08:16:05;;;;;;;;;;;;;;;17.14;69.45;101068.38;2259210;78;51415;-77
2023/01/07 08:19:07;;;;;;;;;;;;;;;17.16;69.71;101069.54;2265012;78;51536;-77
2023/01/07 08:22:08;;;;;;;;;;;;;;;17.17;69.63;101071.23;2241954;78;49721;-76
2023/01/07 08:25:10;;;;;;;;;;;;;;;17.20;69.45;101073.06;2266335;78;50259;-76
2023/01/07 08:28:12;;;;;;;;;;;;;;;17.20;69.33;101069.56;2265791;78;50430;-75
2023/01/07 08:31:14;;;;;;;;;;;;;;;17.20;69.66;101069.06;2266021;78;51861;-76
2023/01/07 08:34:16;;;;;;;;;;;;;;;17.17;69.73;101060.03;2267673;78;51744;-78
2023/01/07 08:37:18;;;;;;;;;;;;;;;17.20;70.21;101060.20;2266488;78;50678;-77
2023/01/07 08:40:19;;;;;;;;;;;;;;;17.25;69.59;101063.73;2266629;78;51468;-78
2023/01/07 08:43:22;;;;;;;;;;;;;;;17.21;69.26;101064.54;2266891;78;50217;-77
2023/01/07 08:46:24;;;;;;;;;;;;;;;17.19;69.08;101060.70;2233294;78;51718;-77
2023/01/07 08:49:26;;;;;;;;;;;;;;;17.18;69.15;101068.38;2271109;76;51414;-77
2023/01/07 08:52:27;;;;;;;;;;;;;;;17.17;69.34;101060.53;2269241;77;51543;-76
2023/01/07 08:55:29;;;;;;;;;;;;;;;17.17;69.20;101059.20;2269351;77;51398;-77
2023/01/07 08:58:30;;;;;;;;;;;;;;;17.15;69.34;101055.34;2245298;77;51639;-77
2023/01/07 09:01:32;;;;;;;;;;;;;;;17.14;69.45;101048.84;2269096;78;50741;-77
2023/01/07 09:04:33;;;;;;;;;;;;;;;17.14;69.41;101053.67;2271818;78;50353;-76
2023/01/07 09:07:35;;;;;;;;;;;;;;;17.13;69.43;101051.98;2247642;78;51297;-76
2023/01/07 09:10:37;;;;;;;;;;;;;;;17.12;69.42;101048.98;2247625;78;51213;-76
2023/01/07 09:13:38;;;;;;;;;;;;;;;17.13;69.45;101050.65;2272803;76;51169;-76
2023/01/07 09:16:40;;;;;;;;;;;;;;;17.14;69.39;101052.84;2265023;78;50221;-76
2023/01/07 09:19:41;;;;;;;;;;;;;;;17.14;69.26;101056.86;2260789;77;50401;-76
2023/01/07 09:22:43;;;;;;;;;;;;;;;17.13;68.94;101048.48;2222420;78;50164;-76
2023/01/07 09:25:45;;;;;;;;;;;;;;;17.16;68.69;101054.36;2246680;77;50666;-76
2023/01/07 09:28:46;;;;;;;;;;;;;;;17.17;68.98;101053.85;2270037;77;51430;-77
2023/01/07 09:31:48;;;;;;;;;;;;;;;17.16;68.77;101053.50;2270318;78;51512;-77
2023/01/07 09:34:49;;;;;;;;;;;;;;;17.16;68.53;101050.34;2241520;78;51322;-76
2023/01/07 09:37:51;;;;;;;;;;;;;;;17.14;68.40;101049.67;2248565;78;50616;-78
2023/01/07 09:40:52;;;;;;;;;;;;;;;17.13;68.32;101052.49;2252334;79;50099;-76
2023/01/07 09:43:54;;;;;;;;;;;;;;;17.12;68.47;101050.33;2252394;79;51469;-77
2023/01/07 09:46:56;;;;;;;;;;;;;;;17.12;68.37;101053.50;2262947;78;51585;-77
2023/01/07 09:53:43;;;;;;;;;;;;;;;17.11;68.38;101053.15;2267633;77;22313;-77
2023/01/07 09:56:45;;;;;;;;;;;;;;;17.10;68.50;101048.31;2257286;78;50398;-78
2023/01/07 09:59:46;;;;;;;;;;;;;;;17.10;68.88;101045.63;2240756;78;51654;-78
2023/01/07 10:03:06;;;;;;;;;;;;;;;17.10;68.79;101038.95;2253954;78;51489;-78
2023/01/07 10:06:13;;;;;;;;;;;;;;;17.12;68.66;101041.47;2250409;78;51555;-78
2023/01/07 10:13:09;;;;;;;;;;;;;;;17.12;69.01;101038.30;2245547;78;22203;-78
2023/01/07 10:16:18;;;;;;;;;;;;;;;17.14;69.71;101032.80;2251826;78;51246;-77
2023/01/07 10:19:33;;;;;;;;;;;;;;;17.15;70.20;101028.60;2244654;77;50956;-77
2023/01/07 10:22:36;;;;;;;;;;;;;;;17.18;70.29;101026.93;2241988;78;50997;-77
2023/01/07 10:25:45;;;;;;;;;;;;;;;17.18;70.08;101026.93;2212179;78;51630;-78
2023/01/07 10:29:03;;;;;;;;;;;;;;;17.17;70.00;101027.94;2260592;78;50350;-77
2023/01/07 10:32:06;;;;;;;;;;;;;;;17.16;69.90;101018.27;2195514;79;50679;-78
2023/01/07 10:35:10;;;;;;;;;;;;;;;17.19;69.92;101006.39;2243433;78;50809;-78
2023/01/07 10:38:12;;;;;;;;;;;;;;;17.18;70.03;101012.22;2233213;78;51754;-78
2023/01/07 10:41:25;;;;;;;;;;;;;;;17.20;70.00;100997.36;2233664;78;51365;-77
2023/01/07 10:44:43;;;;;;;;;;;;;;;17.20;69.94;100994.18;2241316;78;51509;-77
2023/01/07 10:48:05;;;;;;;;;;;;;;;17.20;70.05;100991.51;2268208;78;49820;-77
2023/01/07 10:51:14;;;;;;;;;;;;;;;17.19;70.02;100994.37;2131358;81;51227;-75
2023/01/07 10:54:20;;;;;;;;;;;;;;;17.19;70.06;100990.36;2159318;80;52204;-75
2023/01/07 10:57:22;;;;;;;;;;;;;;;17.19;69.98;100991.69;2193854;81;50797;-74
2023/01/07 11:00:24;;;;;;;;;;;;;;;17.23;69.80;100990.34;2194385;80;50600;-74
2023/01/07 11:03:26;;;;;;;;;;;;;;;17.22;69.94;100982.50;2170191;80;50257;-73
2023/01/07 11:06:29;;;;;;;;;;;;;;;17.22;70.15;100975.81;2148951;80;50321;-73
2023/01/07 11:09:32;;;;;;;;;;;;;;;17.25;70.15;100970.95;2160626;82;50460;-72
2023/01/07 11:12:47;;;;;;;;;;;;;;;17.26;70.31;100967.27;2160863;82;51707;-74
2023/01/07 11:15:50;;;;;;;;;;;;;;;17.29;70.27;100964.77;2129260;82;50981;-73
2023/01/07 11:18:53;;;;;;;;;;;;;;;17.31;70.27;100966.27;2143299;81;51421;-74
2023/01/07 11:21:55;;;;;;;;;;;;;;;17.33;70.33;100958.09;2201068;78;50274;-74
2023/01/07 11:24:57;;;;;;;;;;;;;;;17.37;70.14;100942.05;2232487;78;50742;-75
2023/01/07 11:28:00;;;;;;;;;;;;;;;17.37;69.90;100938.87;2207698;78;51023;-72
2023/01/07 11:31:02;;;;;;;;;;;;;;;17.34;68.79;100934.34;2257477;77;50679;-72
2023/01/07 11:34:03;;;;;;;;;;;;;;;17.30;68.44;100935.70;2236903;78;53440;-72
2023/01/07 11:37:05;;;;;;;;;;;;;;;17.36;68.48;100932.34;2262550;78;50426;-72
2023/01/07 11:40:15;;;;;;;;;;;;;;;17.34;68.68;100933.00;2265624;78;50661;-74
2023/01/07 11:43:18;;;;;;;;;;;;;;;17.33;69.12;100931.34;2247505;78;51589;-74
2023/01/07 11:46:20;;;;;;;;;;;;;;;17.33;69.44;100930.84;2232410;79;50749;-73
2023/01/07 11:49:22;;;;;;;;;;;;;;;17.33;69.57;100927.33;2253131;77;51499;-73
2023/01/07 11:52:24;;;;;;;;;;;;;;;17.40;69.75;100929.17;2265112;77;51688;-75
2023/01/07 11:55:25;;;;;;;;;;;;;;;17.49;69.65;100929.16;2269627;77;51652;-72
2023/01/07 11:58:31;;;;;;;;;;;;;;;17.63;69.52;100929.31;2234757;78;51575;-76
2023/01/07 12:01:33;;;;;;;;;;;;;;;17.78;69.24;100921.94;2245699;78;50487;-78
2023/01/07 12:04:35;;;;;;;;;;;;;;;17.86;68.63;100919.27;2226505;78;52555;-77
2023/01/07 12:07:37;;;;;;;;;;;;;;;17.84;68.90;100915.41;2267244;78;50083;-76
2023/01/07 12:10:38;;;;;;;;;;;;;;;17.95;69.11;100915.54;2260576;77;50659;-75
2023/01/07 12:13:40;;;;;;;;;;;;;;;18.08;68.98;100908.80;2232417;78;50410;-74
2023/01/07 12:16:42;;;;;;;;;;;;;;;18.19;69.01;100901.75;2231457;78;52520;-77
2023/01/07 12:20:02;;;;;;;;;;;;;;;18.34;68.74;100906.70;2248954;78;50760;-77
2023/01/07 12:23:08;;;;;;;;;;;;;;;18.43;68.43;100908.31;2252285;77;51716;-75
2023/01/07 12:26:18;;;;;;;;;;;;;;;18.54;68.04;100913.77;2269027;77;50982;-77
2023/01/07 12:29:39;;;;;;;;;;;;;;;18.71;67.61;100896.59;2243757;78;49676;-76
2023/01/07 12:32:43;;;;;;;;;;;;;;;18.83;67.40;100890.35;2250651;78;50387;-77
2023/01/07 12:35:44;;;;;;;;;;;;;;;18.98;66.90;100889.05;2253903;78;50285;-79
2023/01/07 12:38:48;;;;;;;;;;;;;;;19.13;66.19;100888.58;2265865;78;50244;-78
2023/01/07 12:41:51;;;;;;;;;;;;;;;19.15;65.51;100879.03;2223463;78;50846;-79
2023/01/07 12:44:55;;;;;;;;;;;;;;;19.12;65.27;100886.92;2269617;78;52244;-78
2023/01/07 12:48:00;;;;;;;;;;;;;;;19.04;65.24;100876.27;2269838;78;51509;-78
2023/01/07 12:51:01;;;;;;;;;;;;;;;19.01;65.34;100877.98;2269871;77;22408;-79
2023/01/07 12:54:07;;;;;;;;;;;;;;;18.96;65.38;100870.13;2246652;78;51962;-77
2023/01/07 12:57:14;;;;;;;;;;;;;;;18.90;65.46;100878.39;2270110;78;50738;-78
2023/01/07 13:00:17;;;;;;;;;;;;;;;18.93;65.44;100870.84;2270576;78;51427;-78
2023/01/07 13:03:29;;;;;;;;;;;;;;;19.01;65.32;100867.73;2265491;77;51527;-79
2023/01/07 13:06:33;;;;;;;;;;;;;;;19.14;64.92;100857.25;2246304;78;50161;-79
2023/01/07 13:09:42;;;;;;;;;;;;;;;19.25;64.62;100854.13;2269756;78;51571;-77
2023/01/07 13:12:46;;;;;;;;;;;;;;;19.35;64.21;100853.86;2269586;78;50486;-78
2023/01/07 13:15:48;;;;;;;;;;;;;;;19.35;64.05;100853.35;2270112;78;50091;-78
2023/01/07 13:18:49;;;;;;;;;;;;;;;19.30;64.12;100847.70;2246983;78;50301;-80
2023/01/07 13:21:51;;;;;;;;;;;;;;;19.25;64.15;100840.70;2270549;77;50414;-78
2023/01/07 13:24:54;;;;;;;;;;;;;;;19.19;64.26;100836.56;2270778;77;51424;-78
2023/01/07 13:27:57;;;;;;;;;;;;;;;19.13;64.37;100835.45;2270104;78;50729;-79
2023/01/07 13:31:17;;;;;;;;;;;;;;;19.09;64.49;100821.58;2246872;78;52421;-79
2023/01/07 13:34:23;;;;;;;;;;;;;;;19.15;64.38;100827.55;2270419;78;50789;-77
2023/01/07 13:37:42;;;;;;;;;;;;;;;19.27;64.14;100821.76;2269854;77;50465;-79
2023/01/07 13:40:51;;;;;;;;;;;;;;;19.39;63.80;100822.12;2270071;78;50488;-77
2023/01/07 13:43:54;;;;;;;;;;;;;;;19.45;63.60;100820.89;2246192;78;51683;-78
2023/01/07 13:46:56;;;;;;;;;;;;;;;19.56;63.29;100818.25;2267869;78;51497;-76
2023/01/07 13:49:59;;;;;;;;;;;;;;;19.67;62.96;100815.63;2269568;78;51307;-78
2023/01/07 13:53:01;;;;;;;;;;;;;;;19.72;62.76;100809.20;2268658;78;51333;-77
2023/01/07 13:56:20;;;;;;;;;;;;;;;19.69;62.70;100810.40;2269535;78;50351;-77
2023/01/07 13:59:28;;;;;;;;;;;;;;;19.65;62.78;100811.78;2270694;78;51509;-78
2023/01/07 14:02:32;;;;;;;;;;;;;;;19.60;62.85;100807.48;2270134;77;50682;-77
2023/01/07 14:05:33;;;;;;;;;;;;;;;19.50;63.01;100798.35;2265322;78;50805;-78
2023/01/07 14:08:35;;;;;;;;;;;;;;;19.41;63.23;100796.77;2270182;77;50378;-78
2023/01/07 14:11:40;;;;;;;;;;;;;;;19.36;63.38;100791.12;2270088;78;50300;-79
2023/01/07 14:14:52;;;;;;;;;;;;;;;19.41;63.31;100792.74;2269948;78;22705;-78
2023/01/07 14:17:55;;;;;;;;;;;;;;;19.45;63.26;100793.23;2269685;77;51672;-78
2023/01/07 14:20:59;;;;;;;;;;;;;;;19.50;63.14;100787.62;2246001;78;50113;-78
2023/01/07 14:24:03;;;;;;;;;;;;;;;19.61;62.85;100790.34;2269676;77;50790;-77
2023/01/07 14:27:12;;;;;;;;;;;;;;;19.70;62.63;100786.55;2269801;78;50677;-78
2023/01/07 14:30:24;;;;;;;;;;;;;;;19.79;62.42;100786.78;2267248;78;50284;-77
2023/01/07 14:33:27;;;;;;;;;;;;;;;19.82;62.17;100785.58;2246742;77;52352;-77
2023/01/07 14:36:46;;;;;;;;;;;;;;;19.80;62.16;100784.92;2267980;78;50507;-78
2023/01/07 14:39:48;;;;;;;;;;;;;;;19.73;62.27;100778.14;2299116;77;50789;-77
2023/01/07 14:42:49;;;;;;;;;;;;;;;19.66;62.42;100779.87;2267328;78;50646;-77
2023/01/07 14:45:52;;;;;;;;;;;;;;;19.58;62.58;100779.98;2219198;78;51089;-77
2023/01/07 14:49:01;;;;;;;;;;;;;;;19.48;62.80;100772.20;2243060;78;50757;-76
2023/01/07 14:52:05;;;;;;;;;;;;;;;19.48;62.88;100772.20;2266416;78;49964;-77
2023/01/07 14:55:14;;;;;;;;;;;;;;;19.58;62.78;100777.30;2272894;77;50499;-76
2023/01/07 14:58:33;;;;;;;;;;;;;;;19.65;62.59;100770.66;2227498;79;50744;-76
2023/01/07 15:01:53;;;;;;;;;;;;;;;19.75;62.29;100773.39;2232113;79;52493;-76
2023/01/07 15:04:56;;;;;;;;;;;;;;;19.85;62.10;100767.73;2231989;79;51487;-76
2023/01/07 15:18:01;;;;;;;;;;;;;;;19.80;61.90;100773.66;2185636;81;22407;-77
2023/01/07 15:21:17;;;;;;;;;;;;;;;19.73;62.04;100778.14;2189401;79;50437;-77
2023/01/07 15:24:33;;;;;;;;;;;;;;;19.65;62.25;100778.22;2194156;80;22539;-76
2023/01/07 15:27:52;;;;;;;;;;;;;;;19.60;62.47;100769.89;2187940;81;50818;-73
2023/01/07 15:30:55;;;;;;;;;;;;;;;19.65;62.43;100764.80;2169837;81;50430;-74
2023/01/07 15:34:02;;;;;;;;;;;;;;;19.69;62.33;100771.47;2176331;80;50313;-74
2023/01/07 15:37:04;;;;;;;;;;;;;;;19.65;62.37;100764.80;2192013;79;52672;-73
2023/01/07 15:40:06;;;;;;;;;;;;;;;19.59;62.53;100766.36;2215461;78;51205;-74
2023/01/07 15:43:09;;;;;;;;;;;;;;;19.52;62.66;100762.77;2215608;78;50502;-75
2023/01/07 15:46:11;;;;;;;;;;;;;;;19.46;62.82;100762.67;2252088;77;50694;-74
2023/01/07 15:49:17;;;;;;;;;;;;;;;19.40;62.95;100766.11;2230797;78;49692;-73
2023/01/07 15:52:20;;;;;;;;;;;;;;;19.35;63.04;100761.30;2265576;77;51467;-72
2023/01/07 15:55:23;;;;;;;;;;;;;;;19.30;63.18;100759.16;2250120;78;51562;-74
2023/01/07 15:58:36;;;;;;;;;;;;;;;19.22;63.38;100763.28;2248227;78;50184;-74
2023/01/07 16:01:39;;;;;;;;;;;;;;;19.15;63.55;100755.64;2250598;77;50513;-74
2023/01/07 16:04:42;;;;;;;;;;;;;;;19.12;63.91;100758.70;2257242;77;49884;-73